sensor_id;sensor_type;location;lat;lon;timestamp;pressure;altitude;pressure_sealevel;temperature;humidity
59009;BME280;44794;42.652;23.318;2023-02-21T00:01:54;94906.44;;;2.98;83.68
59009;BME280;44794;42.652;23.318;2023-02-21T00:04:37;94907.28;;;2.99;83.88
59009;BME280;44794;42.652;23.318;2023-02-21T00:07:21;94898.22;;;3.10;83.59
59009;BME280;44794;42.652;23.318;2023-02-21T00:10:06;94914.53;;;3.09;83.18
59009;BME280;44794;42.652;23.318;2023-02-21T00:12:51;94902.19;;;2.97;83.62
59009;BME280;44794;42.652;23.318;2023-02-21T00:15:35;94904.22;;;2.90;83.72
59009;BME280;44794;42.652;23.318;2023-02-21T00:18:19;94902.88;;;2.81;84.44
59009;BME280;44794;42.652;23.318;2023-02-21T00:21:03;94906.47;;;2.77;85.41
59009;BME280;44794;42.652;23.318;2023-02-21T00:23:47;94903.00;;;2.78;85.51
59009;BME280;44794;42.652;23.318;2023-02-21T00:26:31;94895.44;;;2.95;85.27
59009;BME280;44794;42.652;23.318;2023-02-21T00:29:16;94892.78;;;2.98;84.43
59009;BME280;44794;42.652;23.318;2023-02-21T00:32:00;94875.00;;;2.94;84.85
59009;BME280;44794;42.652;23.318;2023-02-21T00:34:44;94870.78;;;2.93;84.86
59009;BME280;44794;42.652;23.318;2023-02-21T00:37:28;94889.13;;;3.03;84.65
59009;BME280;44794;42.652;23.318;2023-02-21T00:40:14;94884.84;;;3.04;84.42
59009;BME280;44794;42.652;23.318;2023-02-21T00:42:58;94882.41;;;3.21;83.85
59009;BME280;44794;42.652;23.318;2023-02-21T00:45:42;94885.63;;;3.06;83.75
59009;BME280;44794;42.652;23.318;2023-02-21T00:48:26;94884.75;;;3.05;83.96
59009;BME280;44794;42.652;23.318;2023-02-21T00:51:10;94889.59;;;3.13;83.82
59009;BME280;44794;42.652;23.318;2023-02-21T00:53:54;94862.00;;;3.18;83.80
59009;BME280;44794;42.652;23.318;2023-02-21T00:56:38;94856.63;;;3.24;83.18
59009;BME280;44794;42.652;23.318;2023-02-21T00:59:22;94863.69;;;3.19;83.34
59009;BME280;44794;42.652;23.318;2023-02-21T01:02:07;94850.16;;;3.15;83.44
59009;BME280;44794;42.652;23.318;2023-02-21T01:04:51;94859.75;;;3.10;83.81
59009;BME280;44794;42.652;23.318;2023-02-21T01:07:35;94846.72;;;3.15;83.87
59009;BME280;44794;42.652;23.318;2023-02-21T01:10:19;94835.56;;;3.16;83.88
59009;BME280;44794;42.652;23.318;2023-02-21T01:13:03;94828.22;;;3.08;83.97
59009;BME280;44794;42.652;23.318;2023-02-21T01:15:48;94833.00;;;3.16;83.70
59009;BME280;44794;42.652;23.318;2023-02-21T01:18:32;94820.44;;;3.10;84.14
59009;BME280;44794;42.652;23.318;2023-02-21T01:21:17;94814.63;;;3.06;84.35
59009;BME280;44794;42.652;23.318;2023-02-21T01:24:02;94822.03;;;3.32;83.79
59009;BME280;44794;42.652;23.318;2023-02-21T01:26:46;94814.66;;;3.45;82.19
59009;BME280;44794;42.652;23.318;2023-02-21T01:29:30;94820.81;;;3.41;82.49
59009;BME280;44794;42.652;23.318;2023-02-21T01:32:14;94821.44;;;3.46;82.05
59009;BME280;44794;42.652;23.318;2023-02-21T01:34:58;94820.06;;;3.39;82.13
59009;BME280;44794;42.652;23.318;2023-02-21T01:37:42;94821.22;;;3.32;82.36
59009;BME280;44794;42.652;23.318;2023-02-21T01:40:26;94811.56;;;3.37;82.37
59009;BME280;44794;42.652;23.318;2023-02-21T01:43:20;94824.75;;;3.29;82.29
59009;BME280;44794;42.652;23.318;2023-02-21T01:46:04;94825.56;;;3.30;82.32
59009;BME280;44794;42.652;23.318;2023-02-21T01:48:51;94812.09;;;3.25;82.67
59009;BME280;44794;42.652;23.318;2023-02-21T01:51:39;94807.94;;;3.22;83.01
59009;BME280;44794;42.652;23.318;2023-02-21T01:54:26;94795.31;;;3.18;83.32
59009;BME280;44794;42.652;23.318;2023-02-21T01:57:12;94808.00;;;3.01;84.03
59009;BME280;44794;42.652;23.318;2023-02-21T01:59:57;94789.28;;;3.19;83.57
59009;BME280;44794;42.652;23.318;2023-02-21T02:05:29;94790.81;;;3.23;83.50
59009;BME280;44794;42.652;23.318;2023-02-21T02:08:15;94786.44;;;3.25;83.51
59009;BME280;44794;42.652;23.318;2023-02-21T02:11:13;94781.44;;;3.22;83.67
59009;BME280;44794;42.652;23.318;2023-02-21T02:17:11;94781.44;;;3.22;83.36
59009;BME280;44794;42.652;23.318;2023-02-21T02:25:24;94765.41;;;3.17;83.40
59009;BME280;44794;42.652;23.318;2023-02-21T02:27:59;94770.91;;;3.28;82.50
59009;BME280;44794;42.652;23.318;2023-02-21T02:35:42;94762.31;;;3.29;82.91
59009;BME280;44794;42.652;23.318;2023-02-21T02:38:35;94759.50;;;3.15;82.94
59009;BME280;44794;42.652;23.318;2023-02-21T02:44:31;94764.78;;;3.12;83.49
59009;BME280;44794;42.652;23.318;2023-02-21T02:46:58;94774.91;;;3.15;83.44
59009;BME280;44794;42.652;23.318;2023-02-21T02:49:26;94755.22;;;3.15;83.63
59009;BME280;44794;42.652;23.318;2023-02-21T02:51:52;94767.47;;;3.09;83.81
59009;BME280;44794;42.652;23.318;2023-02-21T02:54:18;94747.84;;;3.08;83.97
59009;BME280;44794;42.652;23.318;2023-02-21T02:56:45;94762.25;;;3.10;84.06
59009;BME280;44794;42.652;23.318;2023-02-21T02:59:14;94757.22;;;3.09;84.00
59009;BME280;44794;42.652;23.318;2023-02-21T03:07:08;94763.50;;;3.02;83.99
59009;BME280;44794;42.652;23.318;2023-02-21T03:09:42;94763.56;;;3.00;84.24
59009;BME280;44794;42.652;23.318;2023-02-21T03:12:28;94756.19;;;2.93;84.46
59009;BME280;44794;42.652;23.318;2023-02-21T03:15:20;94769.16;;;2.90;84.79
59009;BME280;44794;42.652;23.318;2023-02-21T03:17:55;94762.47;;;2.86;84.79
59009;BME280;44794;42.652;23.318;2023-02-21T03:20:22;94760.56;;;2.91;84.93
59009;BME280;44794;42.652;23.318;2023-02-21T03:22:49;94753.69;;;2.92;84.77
59009;BME280;44794;42.652;23.318;2023-02-21T03:25:17;94755.81;;;2.82;84.82
59009;BME280;44794;42.652;23.318;2023-02-21T03:27:45;94750.56;;;2.85;84.74
59009;BME280;44794;42.652;23.318;2023-02-21T03:30:12;94756.59;;;2.84;84.86
59009;BME280;44794;42.652;23.318;2023-02-21T03:32:46;94749.16;;;2.78;84.67
59009;BME280;44794;42.652;23.318;2023-02-21T03:35:12;94744.78;;;2.80;84.90
59009;BME280;44794;42.652;23.318;2023-02-21T03:37:44;94736.38;;;2.77;85.22
59009;BME280;44794;42.652;23.318;2023-02-21T03:40:15;94730.75;;;2.89;85.13
59009;BME280;44794;42.652;23.318;2023-02-21T03:42:42;94737.69;;;2.87;84.63
59009;BME280;44794;42.652;23.318;2023-02-21T03:45:07;94742.22;;;2.80;85.01
59009;BME280;44794;42.652;23.318;2023-02-21T03:47:34;94741.50;;;2.77;85.18
59009;BME280;44794;42.652;23.318;2023-02-21T03:49:59;94740.53;;;2.79;85.27
59009;BME280;44794;42.652;23.318;2023-02-21T03:52:25;94749.47;;;2.91;84.61
59009;BME280;44794;42.652;23.318;2023-02-21T03:54:50;94758.63;;;2.96;84.42
59009;BME280;44794;42.652;23.318;2023-02-21T03:57:16;94762.16;;;2.94;84.07
59009;BME280;44794;42.652;23.318;2023-02-21T03:59:41;94755.19;;;2.77;84.50
59009;BME280;44794;42.652;23.318;2023-02-21T04:02:06;94751.97;;;2.92;84.46
59009;BME280;44794;42.652;23.318;2023-02-21T04:04:33;94770.81;;;2.91;84.16
59009;BME280;44794;42.652;23.318;2023-02-21T04:06:58;94765.28;;;3.00;83.50
59009;BME280;44794;42.652;23.318;2023-02-21T04:09:23;94758.81;;;3.11;83.15
59009;BME280;44794;42.652;23.318;2023-02-21T04:11:50;94773.75;;;3.02;83.04
59009;BME280;44794;42.652;23.318;2023-02-21T04:14:16;94763.56;;;3.00;83.25
59009;BME280;44794;42.652;23.318;2023-02-21T04:16:42;94773.25;;;2.94;83.50
59009;BME280;44794;42.652;23.318;2023-02-21T04:19:07;94771.56;;;2.93;83.64
59009;BME280;44794;42.652;23.318;2023-02-21T04:21:32;94787.47;;;3.01;83.52
59009;BME280;44794;42.652;23.318;2023-02-21T04:23:58;94781.91;;;2.92;83.49
59009;BME280;44794;42.652;23.318;2023-02-21T04:26:23;94769.97;;;3.49;84.61
59009;BME280;44794;42.652;23.318;2023-02-21T04:28:51;94809.16;;;3.34;82.44
59009;BME280;44794;42.652;23.318;2023-02-21T04:31:17;94802.75;;;3.24;82.40
59009;BME280;44794;42.652;23.318;2023-02-21T04:33:43;94794.94;;;3.27;82.20
59009;BME280;44794;42.652;23.318;2023-02-21T04:36:09;94810.19;;;3.10;82.59
59009;BME280;44794;42.652;23.318;2023-02-21T04:38:35;94797.00;;;2.99;83.47
59009;BME280;44794;42.652;23.318;2023-02-21T04:41:02;94793.13;;;2.89;83.98
59009;BME280;44794;42.652;23.318;2023-02-21T04:43:28;94796.72;;;2.85;84.08
59009;BME280;44794;42.652;23.318;2023-02-21T04:45:53;94787.41;;;2.83;84.26
59009;BME280;44794;42.652;23.318;2023-02-21T04:48:19;94805.03;;;2.70;84.73
59009;BME280;44794;42.652;23.318;2023-02-21T04:50:45;94804.25;;;2.68;85.08
59009;BME280;44794;42.652;23.318;2023-02-21T04:53:10;94795.69;;;2.69;85.42
59009;BME280;44794;42.652;23.318;2023-02-21T04:55:36;94789.25;;;2.59;85.64
59009;BME280;44794;42.652;23.318;2023-02-21T04:58:01;94777.72;;;2.49;86.23
59009;BME280;44794;42.652;23.318;2023-02-21T05:00:27;94773.66;;;2.44;86.26
59009;BME280;44794;42.652;23.318;2023-02-21T05:02:52;94769.84;;;2.32;86.54
59009;BME280;44794;42.652;23.318;2023-02-21T05:05:17;94763.94;;;2.30;87.06
59009;BME280;44794;42.652;23.318;2023-02-21T05:07:43;94757.03;;;2.32;87.26
59009;BME280;44794;42.652;23.318;2023-02-21T05:10:09;94748.66;;;2.29;87.42
59009;BME280;44794;42.652;23.318;2023-02-21T05:12:35;94749.25;;;2.35;87.79
59009;BME280;44794;42.652;23.318;2023-02-21T05:15:03;94748.34;;;2.36;87.26
59009;BME280;44794;42.652;23.318;2023-02-21T05:17:29;94756.25;;;2.52;86.83
59009;BME280;44794;42.652;23.318;2023-02-21T05:19:54;94740.19;;;2.68;86.72
59009;BME280;44794;42.652;23.318;2023-02-21T05:22:20;94737.09;;;2.80;85.29
59009;BME280;44794;42.652;23.318;2023-02-21T05:24:47;94738.19;;;2.75;85.52
59009;BME280;44794;42.652;23.318;2023-02-21T05:27:14;94729.19;;;3.04;84.61
59009;BME280;44794;42.652;23.318;2023-02-21T05:29:51;94737.34;;;2.94;84.12
59009;BME280;44794;42.652;23.318;2023-02-21T05:32:18;94744.66;;;2.83;84.33
59009;BME280;44794;42.652;23.318;2023-02-21T05:34:44;94752.91;;;2.90;84.36
59009;BME280;44794;42.652;23.318;2023-02-21T05:37:11;94739.63;;;3.00;84.02
59009;BME280;44794;42.652;23.318;2023-02-21T05:39:37;94757.16;;;2.91;83.94
59009;BME280;44794;42.652;23.318;2023-02-21T05:42:03;94760.94;;;3.02;84.16
59009;BME280;44794;42.652;23.318;2023-02-21T05:44:29;94759.38;;;3.18;83.27
59009;BME280;44794;42.652;23.318;2023-02-21T05:46:54;94766.72;;;3.64;82.46
59009;BME280;44794;42.652;23.318;2023-02-21T05:49:19;94782.50;;;4.46;79.07
59009;BME280;44794;42.652;23.318;2023-02-21T05:51:45;94782.41;;;5.49;74.97
59009;BME280;44794;42.652;23.318;2023-02-21T05:54:16;94793.41;;;5.53;71.38
59009;BME280;44794;42.652;23.318;2023-02-21T05:56:43;94805.28;;;6.20;69.78
59009;BME280;44794;42.652;23.318;2023-02-21T05:59:10;94809.13;;;6.88;65.55
59009;BME280;44794;42.652;23.318;2023-02-21T06:01:35;94806.00;;;6.97;63.97
59009;BME280;44794;42.652;23.318;2023-02-21T06:04:01;94816.16;;;6.40;64.61
59009;BME280;44794;42.652;23.318;2023-02-21T06:06:27;94800.59;;;5.96;67.12
59009;BME280;44794;42.652;23.318;2023-02-21T06:08:53;94804.41;;;5.72;68.94
59009;BME280;44794;42.652;23.318;2023-02-21T06:11:24;94805.09;;;5.58;69.62
59009;BME280;44794;42.652;23.318;2023-02-21T06:13:54;94808.16;;;5.49;71.10
59009;BME280;44794;42.652;23.318;2023-02-21T06:16:21;94810.34;;;5.57;70.83
59009;BME280;44794;42.652;23.318;2023-02-21T06:18:54;94813.00;;;5.55;70.29
59009;BME280;44794;42.652;23.318;2023-02-21T06:21:20;94798.69;;;5.50;70.49
59009;BME280;44794;42.652;23.318;2023-02-21T06:23:46;94803.69;;;5.53;70.26
59009;BME280;44794;42.652;23.318;2023-02-21T06:26:12;94807.41;;;5.47;70.66
59009;BME280;44794;42.652;23.318;2023-02-21T06:28:38;94811.03;;;5.60;70.46
59009;BME280;44794;42.652;23.318;2023-02-21T06:31:04;94817.97;;;5.75;70.16
59009;BME280;44794;42.652;23.318;2023-02-21T06:33:30;94822.81;;;5.81;69.34
59009;BME280;44794;42.652;23.318;2023-02-21T06:35:55;94820.44;;;5.94;69.12
59009;BME280;44794;42.652;23.318;2023-02-21T06:38:21;94822.59;;;6.01;67.62
59009;BME280;44794;42.652;23.318;2023-02-21T06:40:47;94826.13;;;6.15;67.77
59009;BME280;44794;42.652;23.318;2023-02-21T06:43:12;94829.63;;;6.14;67.33
59009;BME280;44794;42.652;23.318;2023-02-21T06:45:38;94828.28;;;6.23;67.31
59009;BME280;44794;42.652;23.318;2023-02-21T06:58:27;94815.06;;;6.60;65.33
59009;BME280;44794;42.652;23.318;2023-02-21T07:00:52;94822.47;;;6.66;64.36
59009;BME280;44794;42.652;23.318;2023-02-21T07:03:17;94804.31;;;6.67;64.59
59009;BME280;44794;42.652;23.318;2023-02-21T07:05:43;94815.81;;;6.62;64.09
59009;BME280;44794;42.652;23.318;2023-02-21T07:08:08;94819.41;;;6.74;63.82
59009;BME280;44794;42.652;23.318;2023-02-21T07:10:34;94819.25;;;6.91;63.47
59009;BME280;44794;42.652;23.318;2023-02-21T07:12:59;94819.72;;;7.13;62.32
59009;BME280;44794;42.652;23.318;2023-02-21T07:15:25;94831.63;;;7.16;61.83
59009;BME280;44794;42.652;23.318;2023-02-21T07:17:51;94830.28;;;7.24;61.64
59009;BME280;44794;42.652;23.318;2023-02-21T07:20:16;94823.25;;;7.26;60.42
59009;BME280;44794;42.652;23.318;2023-02-21T07:22:42;94818.84;;;7.28;60.55
59009;BME280;44794;42.652;23.318;2023-02-21T07:25:07;94821.63;;;7.39;60.34
59009;BME280;44794;42.652;23.318;2023-02-21T07:27:33;94825.91;;;7.54;60.32
59009;BME280;44794;42.652;23.318;2023-02-21T07:29:58;94820.03;;;7.66;59.79
59009;BME280;44794;42.652;23.318;2023-02-21T07:32:24;94816.16;;;7.73;58.91
59009;BME280;44794;42.652;23.318;2023-02-21T07:34:49;94812.56;;;7.89;58.50
59009;BME280;44794;42.652;23.318;2023-02-21T07:37:14;94801.97;;;7.94;58.70
59009;BME280;44794;42.652;23.318;2023-02-21T07:39:40;94805.09;;;7.99;58.07
59009;BME280;44794;42.652;23.318;2023-02-21T07:42:06;94804.81;;;8.03;57.99
59009;BME280;44794;42.652;23.318;2023-02-21T07:44:34;94809.91;;;8.19;58.50
59009;BME280;44794;42.652;23.318;2023-02-21T07:47:00;94805.38;;;8.22;56.90
59009;BME280;44794;42.652;23.318;2023-02-21T07:49:25;94791.91;;;8.17;57.33
59009;BME280;44794;42.652;23.318;2023-02-21T07:51:50;94807.84;;;8.10;57.35
59009;BME280;44794;42.652;23.318;2023-02-21T07:54:16;94794.38;;;8.19;57.52
59009;BME280;44794;42.652;23.318;2023-02-21T07:56:46;94793.56;;;8.18;57.07
59009;BME280;44794;42.652;23.318;2023-02-21T07:59:13;94788.63;;;8.14;57.03
59009;BME280;44794;42.652;23.318;2023-02-21T08:01:39;94783.22;;;8.18;56.92
59009;BME280;44794;42.652;23.318;2023-02-21T08:04:05;94791.91;;;8.17;57.07
59009;BME280;44794;42.652;23.318;2023-02-21T08:06:33;94781.56;;;8.17;57.27
59009;BME280;44794;42.652;23.318;2023-02-21T08:08:59;94781.63;;;8.16;57.20
59009;BME280;44794;42.652;23.318;2023-02-21T08:11:24;94785.88;;;8.17;57.24
59009;BME280;44794;42.652;23.318;2023-02-21T08:13:49;94782.09;;;8.22;57.10
59009;BME280;44794;42.652;23.318;2023-02-21T08:16:15;94780.00;;;8.15;56.78
59009;BME280;44794;42.652;23.318;2023-02-21T08:18:40;94783.00;;;8.07;57.47
59009;BME280;44794;42.652;23.318;2023-02-21T08:21:09;94790.66;;;8.09;57.72
59009;BME280;44794;42.652;23.318;2023-02-21T08:23:35;94797.50;;;8.23;57.78
59009;BME280;44794;42.652;23.318;2023-02-21T08:26:03;94786.97;;;8.40;56.49
59009;BME280;44794;42.652;23.318;2023-02-21T08:28:29;94792.03;;;8.42;56.68
59009;BME280;44794;42.652;23.318;2023-02-21T08:30:54;94764.25;;;8.31;56.42
59009;BME280;44794;42.652;23.318;2023-02-21T08:33:20;94775.22;;;8.35;56.33
59009;BME280;44794;42.652;23.318;2023-02-21T08:35:45;94768.06;;;8.52;56.16
59009;BME280;44794;42.652;23.318;2023-02-21T08:38:11;94771.06;;;8.73;56.22
59009;BME280;44794;42.652;23.318;2023-02-21T08:40:36;94761.88;;;8.81;54.95
59009;BME280;44794;42.652;23.318;2023-02-21T08:43:02;94771.66;;;8.90;54.46
59009;BME280;44794;42.652;23.318;2023-02-21T08:45:30;94769.50;;;9.09;54.23
59009;BME280;44794;42.652;23.318;2023-02-21T08:47:57;94770.19;;;9.25;53.96
59009;BME280;44794;42.652;23.318;2023-02-21T08:50:24;94774.91;;;9.18;53.69
59009;BME280;44794;42.652;23.318;2023-02-21T08:52:51;94774.53;;;9.37;53.64
59009;BME280;44794;42.652;23.318;2023-02-21T08:55:17;94768.13;;;9.55;53.58
59009;BME280;44794;42.652;23.318;2023-02-21T08:57:44;94772.91;;;9.61;52.69
59009;BME280;44794;42.652;23.318;2023-02-21T09:00:13;94763.78;;;9.68;52.71
59009;BME280;44794;42.652;23.318;2023-02-21T09:02:38;94758.59;;;9.68;52.81
59009;BME280;44794;42.652;23.318;2023-02-21T09:05:07;94773.94;;;9.83;52.71
59009;BME280;44794;42.652;23.318;2023-02-21T09:07:33;94764.06;;;9.75;52.22
59009;BME280;44794;42.652;23.318;2023-02-21T09:10:00;94762.84;;;9.68;52.44
59009;BME280;44794;42.652;23.318;2023-02-21T09:12:25;94754.22;;;9.56;52.38
59009;BME280;44794;42.652;23.318;2023-02-21T09:14:50;94756.41;;;9.62;52.32
59009;BME280;44794;42.652;23.318;2023-02-21T09:17:16;94767.81;;;9.71;52.76
59009;BME280;44794;42.652;23.318;2023-02-21T09:19:41;94765.25;;;9.84;52.65
59009;BME280;44794;42.652;23.318;2023-02-21T09:22:09;94754.84;;;9.96;51.54
59009;BME280;44794;42.652;23.318;2023-02-21T09:24:36;94750.81;;;9.92;51.49
59009;BME280;44794;42.652;23.318;2023-02-21T09:27:02;94740.66;;;10.02;51.57
59009;BME280;44794;42.652;23.318;2023-02-21T09:29:29;94751.50;;;10.19;52.09
59009;BME280;44794;42.652;23.318;2023-02-21T09:31:55;94737.97;;;10.39;51.28
59009;BME280;44794;42.652;23.318;2023-02-21T09:34:20;94741.63;;;10.60;50.75
59009;BME280;44794;42.652;23.318;2023-02-21T09:36:47;94737.28;;;10.84;48.95
59009;BME280;44794;42.652;23.318;2023-02-21T09:39:15;94738.97;;;10.96;49.34
59009;BME280;44794;42.652;23.318;2023-02-21T09:41:41;94730.78;;;11.13;49.23
59009;BME280;44794;42.652;23.318;2023-02-21T09:44:16;94728.94;;;11.36;48.15
59009;BME280;44794;42.652;23.318;2023-02-21T09:46:45;94726.78;;;11.54;47.39
59009;BME280;44794;42.652;23.318;2023-02-21T09:49:31;94727.88;;;11.62;47.15
59009;BME280;44794;42.652;23.318;2023-02-21T09:51:59;94728.59;;;11.75;47.07
59009;BME280;44794;42.652;23.318;2023-02-21T09:54:31;94719.84;;;11.87;46.11
59009;BME280;44794;42.652;23.318;2023-02-21T09:57:00;94722.69;;;12.06;45.43
59009;BME280;44794;42.652;23.318;2023-02-21T09:59:26;94709.06;;;12.24;45.69
59009;BME280;44794;42.652;23.318;2023-02-21T10:07:13;94700.84;;;13.04;43.41
59009;BME280;44794;42.652;23.318;2023-02-21T10:09:58;94695.91;;;13.21;41.71
59009;BME280;44794;42.652;23.318;2023-02-21T10:12:40;94695.53;;;13.46;40.79
59009;BME280;44794;42.652;23.318;2023-02-21T10:15:36;94687.94;;;13.63;40.65
59009;BME280;44794;42.652;23.318;2023-02-21T10:20:55;94683.31;;;13.97;39.86
59009;BME280;44794;42.652;23.318;2023-02-21T10:23:43;94678.19;;;14.16;37.14
59009;BME280;44794;42.652;23.318;2023-02-21T10:26:32;94670.53;;;14.33;36.89
59009;BME280;44794;42.652;23.318;2023-02-21T10:29:00;94658.34;;;14.52;36.51
59009;BME280;44794;42.652;23.318;2023-02-21T10:31:31;94659.06;;;14.83;34.75
59009;BME280;44794;42.652;23.318;2023-02-21T10:33:58;94663.09;;;15.05;35.27
59009;BME280;44794;42.652;23.318;2023-02-21T10:36:27;94655.25;;;15.34;33.77
59009;BME280;44794;42.652;23.318;2023-02-21T10:38:56;94631.09;;;15.59;31.16
59009;BME280;44794;42.652;23.318;2023-02-21T10:41:24;94644.56;;;15.73;30.87
59009;BME280;44794;42.652;23.318;2023-02-21T10:43:58;94627.84;;;15.83;29.54
59009;BME280;44794;42.652;23.318;2023-02-21T10:46:36;94630.00;;;15.97;30.07
59009;BME280;44794;42.652;23.318;2023-02-21T10:49:24;94620.00;;;16.10;29.80
59009;BME280;44794;42.652;23.318;2023-02-21T10:52:14;94614.72;;;16.29;29.74
59009;BME280;44794;42.652;23.318;2023-02-21T10:55:18;94617.78;;;16.15;29.14
59009;BME280;44794;42.652;23.318;2023-02-21T10:57:48;94602.16;;;16.23;29.52
59009;BME280;44794;42.652;23.318;2023-02-21T11:00:27;94600.25;;;16.16;28.99
59009;BME280;44794;42.652;23.318;2023-02-21T11:03:00;94593.75;;;16.29;29.02
59009;BME280;44794;42.652;23.318;2023-02-21T11:05:27;94586.13;;;16.26;28.85
59009;BME280;44794;42.652;23.318;2023-02-21T11:08:01;94576.69;;;16.43;29.30
59009;BME280;44794;42.652;23.318;2023-02-21T11:13:20;94579.13;;;16.71;28.75
59009;BME280;44794;42.652;23.318;2023-02-21T11:15:46;94575.53;;;16.72;28.11
59009;BME280;44794;42.652;23.318;2023-02-21T11:20:46;94569.16;;;16.74;28.55
59009;BME280;44794;42.652;23.318;2023-02-21T11:23:29;94560.06;;;16.69;28.58
59009;BME280;44794;42.652;23.318;2023-02-21T11:26:14;94547.03;;;16.77;29.15
59009;BME280;44794;42.652;23.318;2023-02-21T11:28:41;94559.91;;;16.88;28.99
59009;BME280;44794;42.652;23.318;2023-02-21T11:31:27;94548.91;;;16.84;28.97
59009;BME280;44794;42.652;23.318;2023-02-21T11:33:57;94541.94;;;16.93;29.00
59009;BME280;44794;42.652;23.318;2023-02-21T11:36:31;94531.44;;;16.93;28.59
59009;BME280;44794;42.652;23.318;2023-02-21T11:44:27;94524.28;;;17.03;28.56
59009;BME280;44794;42.652;23.318;2023-02-21T11:47:20;94516.94;;;17.06;29.04
59009;BME280;44794;42.652;23.318;2023-02-21T11:50:10;94515.34;;;17.13;28.87
59009;BME280;44794;42.652;23.318;2023-02-21T11:55:14;94511.03;;;17.30;29.05
59009;BME280;44794;42.652;23.318;2023-02-21T11:57:47;94506.03;;;17.19;29.03
59009;BME280;44794;42.652;23.318;2023-02-21T12:08:46;94494.00;;;17.08;29.36
59009;BME280;44794;42.652;23.318;2023-02-21T12:20:20;94464.41;;;16.98;29.80
59009;BME280;44794;42.652;23.318;2023-02-21T12:37:12;94451.00;;;16.58;30.22
59009;BME280;44794;42.652;23.318;2023-02-21T12:50:39;94443.78;;;16.78;30.56
59009;BME280;44794;42.652;23.318;2023-02-21T12:55:42;94432.66;;;16.84;29.99
59009;BME280;44794;42.652;23.318;2023-02-21T12:58:27;94435.69;;;16.97;30.30
59009;BME280;44794;42.652;23.318;2023-02-21T13:01:08;94436.88;;;17.02;30.21
59009;BME280;44794;42.652;23.318;2023-02-21T13:04:19;94435.41;;;17.00;30.09
59009;BME280;44794;42.652;23.318;2023-02-21T13:07:13;94436.16;;;17.18;29.59
59009;BME280;44794;42.652;23.318;2023-02-21T13:09:55;94436.50;;;17.23;29.47
59009;BME280;44794;42.652;23.318;2023-02-21T13:12:36;94430.19;;;17.33;29.40
59009;BME280;44794;42.652;23.318;2023-02-21T13:15:22;94425.13;;;17.39;29.43
59009;BME280;44794;42.652;23.318;2023-02-21T13:18:05;94415.31;;;17.49;29.21
59009;BME280;44794;42.652;23.318;2023-02-21T13:20:36;94419.31;;;17.61;29.09
59009;BME280;44794;42.652;23.318;2023-02-21T13:29:19;94408.31;;;17.58;29.10
59009;BME280;44794;42.652;23.318;2023-02-21T13:31:46;94408.66;;;17.63;28.62
59009;BME280;44794;42.652;23.318;2023-02-21T13:34:17;94404.84;;;17.57;28.67
59009;BME280;44794;42.652;23.318;2023-02-21T13:36:45;94406.34;;;17.68;28.63
59009;BME280;44794;42.652;23.318;2023-02-21T13:39:27;94401.78;;;17.70;28.06
59009;BME280;44794;42.652;23.318;2023-02-21T13:42:19;94397.03;;;17.73;28.36
59009;BME280;44794;42.652;23.318;2023-02-21T13:44:52;94397.66;;;17.67;27.94
59009;BME280;44794;42.652;23.318;2023-02-21T13:47:22;94395.38;;;17.72;28.18
59009;BME280;44794;42.652;23.318;2023-02-21T13:49:57;94395.72;;;17.77;27.98
59009;BME280;44794;42.652;23.318;2023-02-21T13:57:39;94382.63;;;17.93;27.35
59009;BME280;44794;42.652;23.318;2023-02-21T14:05:22;94381.31;;;17.89;27.52
59009;BME280;44794;42.652;23.318;2023-02-21T14:16:18;94382.66;;;18.09;27.37
59009;BME280;44794;42.652;23.318;2023-02-21T14:18:58;94383.44;;;18.09;27.72
59009;BME280;44794;42.652;23.318;2023-02-21T14:24:01;94383.44;;;18.02;27.65
59009;BME280;44794;42.652;23.318;2023-02-21T14:26:39;94384.28;;;18.02;27.87
59009;BME280;44794;42.652;23.318;2023-02-21T14:31:47;94375.41;;;17.95;27.97
59009;BME280;44794;42.652;23.318;2023-02-21T14:34:19;94377.34;;;17.93;28.21
59009;BME280;44794;42.652;23.318;2023-02-21T14:36:45;94381.63;;;17.86;27.71
59009;BME280;44794;42.652;23.318;2023-02-21T14:39:14;94370.75;;;17.73;27.39
59009;BME280;44794;42.652;23.318;2023-02-21T14:49:54;94376.63;;;17.59;27.56
59009;BME280;44794;42.652;23.318;2023-02-21T14:52:53;94378.44;;;17.59;27.51
59009;BME280;44794;42.652;23.318;2023-02-21T14:55:56;94367.72;;;17.44;27.23
59009;BME280;44794;42.652;23.318;2023-02-21T14:58:43;94382.28;;;17.39;27.21
59009;BME280;44794;42.652;23.318;2023-02-21T15:03:47;94377.78;;;17.24;27.08
59009;BME280;44794;42.652;23.318;2023-02-21T15:06:20;94375.63;;;17.19;27.29
59009;BME280;44794;42.652;23.318;2023-02-21T15:08:50;94378.63;;;17.24;27.19
59009;BME280;44794;42.652;23.318;2023-02-21T15:11:23;94369.22;;;17.22;27.57
59009;BME280;44794;42.652;23.318;2023-02-21T15:14:10;94364.22;;;17.03;27.64
59009;BME280;44794;42.652;23.318;2023-02-21T15:16:38;94368.13;;;16.91;27.92
59009;BME280;44794;42.652;23.318;2023-02-21T15:19:05;94363.88;;;16.98;27.62
59009;BME280;44794;42.652;23.318;2023-02-21T15:21:30;94366.63;;;16.88;28.02
59009;BME280;44794;42.652;23.318;2023-02-21T15:24:13;94370.22;;;16.87;27.79
59009;BME280;44794;42.652;23.318;2023-02-21T15:26:40;94369.00;;;16.74;27.95
59009;BME280;44794;42.652;23.318;2023-02-21T15:31:42;94379.41;;;16.58;28.14
59009;BME280;44794;42.652;23.318;2023-02-21T15:34:25;94375.59;;;16.53;28.35
59009;BME280;44794;42.652;23.318;2023-02-21T15:39:35;94377.84;;;16.48;28.80
59009;BME280;44794;42.652;23.318;2023-02-21T15:42:05;94381.88;;;16.25;29.23
59009;BME280;44794;42.652;23.318;2023-02-21T15:47:41;94379.13;;;16.09;29.58
59009;BME280;44794;42.652;23.318;2023-02-21T15:52:40;94388.19;;;15.79;29.94
59009;BME280;44794;42.652;23.318;2023-02-21T15:55:13;94387.81;;;15.75;30.17
59009;BME280;44794;42.652;23.318;2023-02-21T15:57:39;94382.31;;;15.51;30.54
59009;BME280;44794;42.652;23.318;2023-02-21T16:05:54;94386.78;;;15.41;30.34